createdAt,value
2022-10-30T00:05:58.844Z,100.00
2022-10-30T00:13:34.045Z,100.00
2022-10-30T00:21:09.183Z,100.00
2022-10-30T00:28:44.252Z,100.00
2022-10-30T00:36:17.697Z,100.00
2022-10-30T00:43:53.462Z,100.00
2022-10-30T00:51:30.064Z,100.00
2022-10-30T00:59:09.167Z,100.00
2022-10-30T01:06:48.179Z,100.00
2022-10-30T01:14:23.316Z,100.00
2022-10-30T01:22:07.956Z,100.00
2022-10-30T01:29:56.368Z,100.00
2022-10-30T01:37:35.529Z,100.00
2022-10-30T01:45:16.432Z,100.00
2022-10-30T01:52:57.704Z,100.00
2022-10-30T02:00:33.364Z,100.00
2022-10-30T02:08:07.395Z,100.00
2022-10-30T02:15:43.717Z,100.00
2022-10-30T02:23:20.763Z,100.00
2022-10-30T02:30:54.493Z,100.00
2022-10-30T02:38:29.865Z,100.00
2022-10-30T02:46:03.579Z,100.00
2022-10-30T02:53:38.983Z,100.00
2022-10-30T03:01:14.975Z,100.00
2022-10-30T03:08:50.200Z,100.00
2022-10-30T03:16:29.362Z,100.00
2022-10-30T03:24:04.738Z,100.00
2022-10-30T03:31:38.448Z,100.00
2022-10-30T03:39:13.513Z,100.00
2022-10-30T03:46:47.205Z,100.00
2022-10-30T03:54:24.509Z,100.00
2022-10-30T04:01:58.291Z,100.00
2022-10-30T04:09:33.441Z,100.00
2022-10-30T04:17:07.137Z,100.00
2022-10-30T04:24:42.324Z,100.00
2022-10-30T04:32:15.954Z,100.00
2022-10-30T04:39:50.874Z,100.00
2022-10-30T04:47:24.612Z,100.00
2022-10-30T04:54:59.683Z,100.00
2022-10-30T05:02:33.272Z,100.00
2022-10-30T05:10:12.107Z,100.00
2022-10-30T05:17:45.678Z,100.00
2022-10-30T05:25:20.641Z,100.00
2022-10-30T05:32:58.600Z,100.00
2022-10-30T05:40:34.828Z,100.00
2022-10-30T05:48:09.000Z,100.00
2022-10-30T05:55:43.947Z,100.00
2022-10-30T06:03:17.865Z,100.00
2022-10-30T06:10:55.295Z,100.00
2022-10-30T06:18:28.884Z,100.00
2022-10-30T06:26:03.936Z,100.00
2022-10-30T06:33:37.335Z,100.00
2022-10-30T06:41:12.285Z,100.00
2022-10-30T06:48:45.736Z,100.00
2022-10-30T06:56:20.704Z,100.00
2022-10-30T07:03:54.174Z,100.00
2022-10-30T07:11:29.195Z,100.00
2022-10-30T07:19:04.583Z,100.00
2022-10-30T07:26:39.811Z,100.00
2022-10-30T07:34:13.457Z,100.00
2022-10-30T07:41:50.243Z,100.00
2022-10-30T07:49:24.377Z,100.00
2022-10-30T07:56:59.447Z,100.00
2022-10-30T08:04:33.404Z,100.00
2022-10-30T08:12:09.034Z,100.00
2022-10-30T08:19:42.866Z,100.00
2022-10-30T08:27:17.803Z,100.00
2022-10-30T08:34:51.476Z,100.00
2022-10-30T08:42:26.527Z,100.00
2022-10-30T08:50:00.226Z,100.00
2022-10-30T08:57:38.397Z,100.00
2022-10-30T09:05:12.713Z,100.00
2022-10-30T09:12:47.707Z,100.00
2022-10-30T09:20:21.523Z,100.00
2022-10-30T09:27:56.522Z,100.00
2022-10-30T09:35:30.121Z,100.00
2022-10-30T09:43:15.386Z,100.00
2022-10-30T09:50:57.844Z,100.00
2022-10-30T09:58:37.297Z,100.00
2022-10-30T10:06:18.426Z,100.00
2022-10-30T10:13:57.416Z,100.00
2022-10-30T10:21:36.172Z,100.00
2022-10-30T10:29:34.092Z,95.35
2022-10-30T10:37:17.393Z,92.75
2022-10-30T10:45:04.270Z,93.76
2022-10-30T10:52:41.840Z,86.60
2022-10-30T11:00:20.029Z,88.03
2022-10-30T11:07:59.708Z,87.33
2022-10-30T11:15:47.147Z,82.41
2022-10-30T11:23:35.295Z,83.88
2022-10-30T11:31:24.752Z,81.40
2022-10-30T11:39:09.993Z,81.69
2022-10-30T11:46:45.102Z,80.08
2022-10-30T11:54:22.642Z,81.13
2022-10-30T12:02:03.023Z,78.12
2022-10-30T12:09:43.134Z,78.93
2022-10-30T12:17:19.807Z,78.65
2022-10-30T12:24:53.787Z,78.26
2022-10-30T12:32:39.676Z,78.03
2022-10-30T12:40:17.842Z,77.60
2022-10-30T12:47:59.337Z,75.89
2022-10-30T12:55:38.177Z,75.51
2022-10-30T13:03:25.020Z,73.10
2022-10-30T13:11:06.326Z,73.70
2022-10-30T13:18:41.438Z,73.94
2022-10-30T13:26:25.171Z,74.14
2022-10-30T13:34:08.177Z,75.49
2022-10-30T13:41:52.159Z,74.96
2022-10-30T13:49:45.639Z,75.49
2022-10-30T13:57:26.262Z,75.91
2022-10-30T14:05:15.704Z,76.20
2022-10-30T14:12:54.269Z,77.28
2022-10-30T14:20:29.947Z,79.67
2022-10-30T14:28:03.872Z,80.90
2022-10-30T14:36:14.393Z,84.32
2022-10-30T14:43:58.013Z,87.32
2022-10-30T14:51:38.320Z,91.11
2022-10-30T14:59:24.488Z,95.28
2022-10-30T15:07:07.459Z,98.42
2022-10-30T15:15:00.497Z,100.00
2022-10-30T15:22:37.012Z,100.00
2022-10-30T15:30:18.188Z,100.00
2022-10-30T15:38:01.621Z,100.00
2022-10-30T15:45:37.170Z,100.00
2022-10-30T15:53:20.352Z,100.00
2022-10-30T16:00:58.575Z,100.00
2022-10-30T16:08:44.645Z,100.00
2022-10-30T16:16:23.070Z,100.00
2022-10-30T16:24:00.930Z,100.00
2022-10-30T16:31:37.055Z,100.00
2022-10-30T16:39:16.706Z,100.00
2022-10-30T16:46:52.693Z,100.00
2022-10-30T16:54:31.704Z,100.00
2022-10-30T17:02:13.713Z,100.00
2022-10-30T17:09:52.290Z,100.00
2022-10-30T17:17:29.610Z,100.00
2022-10-30T17:25:16.568Z,100.00
2022-10-30T17:32:54.622Z,100.00
2022-10-30T17:40:29.629Z,100.00
2022-10-30T17:48:04.104Z,100.00
2022-10-30T17:55:40.484Z,100.00
2022-10-30T18:03:14.197Z,100.00
2022-10-30T18:10:49.281Z,100.00
2022-10-30T18:18:22.778Z,100.00
2022-10-30T18:25:57.826Z,100.00
2022-10-30T18:33:31.458Z,100.00
2022-10-30T18:41:07.211Z,100.00
2022-10-30T18:48:41.163Z,100.00
2022-10-30T18:56:16.473Z,100.00
2022-10-30T19:03:50.617Z,100.00
2022-10-30T19:11:26.799Z,100.00
2022-10-30T19:19:01.969Z,100.00
2022-10-30T19:26:37.155Z,100.00
2022-10-30T19:34:10.859Z,100.00
2022-10-30T19:41:45.811Z,100.00
2022-10-30T19:49:21.487Z,100.00
2022-10-30T19:56:56.418Z,100.00
2022-10-30T20:04:30.086Z,100.00
2022-10-30T20:12:06.086Z,100.00
2022-10-30T20:19:42.252Z,100.00
2022-10-30T20:27:17.249Z,100.00
2022-10-30T20:34:50.739Z,100.00
2022-10-30T20:42:26.529Z,100.00
2022-10-30T20:50:00.592Z,100.00
2022-10-30T21:05:30.621Z,100.00
2022-10-30T21:13:11.072Z,100.00
2022-10-30T21:20:45.052Z,100.00
2022-10-30T21:28:20.008Z,100.00
2022-10-30T21:35:53.507Z,100.00
2022-10-30T21:43:28.504Z,100.00
2022-10-30T21:51:09.595Z,100.00
2022-10-30T21:58:44.671Z,100.00
2022-10-30T22:06:20.261Z,100.00
2022-10-30T22:13:56.372Z,100.00
2022-10-30T22:21:30.763Z,100.00
2022-10-30T22:29:05.758Z,100.00
2022-10-30T22:36:39.312Z,100.00
2022-10-30T22:44:17.388Z,100.00
2022-10-30T22:51:51.542Z,100.00
2022-10-30T22:59:26.687Z,100.00
2022-10-30T23:07:00.376Z,100.00
2022-10-30T23:14:35.622Z,100.00
2022-10-30T23:22:09.258Z,100.00
2022-10-30T23:29:44.170Z,100.00
2022-10-30T23:37:17.680Z,100.00
2022-10-30T23:44:52.634Z,100.00
2022-10-30T23:52:26.552Z,100.00
